createdAt,value
2017-08-26T00:00:29.262Z,15.70
2017-08-26T00:03:03.392Z,15.70
2017-08-26T00:05:32.033Z,15.60
2017-08-26T00:08:00.428Z,15.60
2017-08-26T00:10:28.703Z,15.60
2017-08-26T00:12:57.295Z,15.50
2017-08-26T00:15:25.584Z,15.50
2017-08-26T00:17:53.898Z,15.50
2017-08-26T00:20:22.769Z,15.40
2017-08-26T00:22:51.051Z,15.40
2017-08-26T00:25:19.431Z,15.40
2017-08-26T00:27:48.122Z,15.30
2017-08-26T00:30:16.415Z,15.30
2017-08-26T00:32:44.732Z,15.30
2017-08-26T00:35:13.362Z,15.20
2017-08-26T00:37:42.301Z,15.20
2017-08-26T00:40:10.608Z,15.20
2017-08-26T00:42:39.164Z,15.10
2017-08-26T00:45:07.475Z,15.10
2017-08-26T00:47:35.780Z,15.10
2017-08-26T00:50:04.340Z,15.00
2017-08-26T00:52:32.672Z,15.00
2017-08-26T00:55:01.015Z,14.90
2017-08-26T00:57:29.642Z,14.90
2017-08-26T00:59:58.025Z,14.90
2017-08-26T01:02:26.291Z,14.80
2017-08-26T01:04:54.898Z,14.80
2017-08-26T01:07:28.972Z,14.80
2017-08-26T01:09:57.598Z,14.70
2017-08-26T01:12:26.391Z,14.70
2017-08-26T01:14:55.396Z,14.70
2017-08-26T01:17:24.741Z,14.60
2017-08-26T01:19:53.036Z,14.60
2017-08-26T01:22:21.850Z,14.60
2017-08-26T01:24:50.453Z,14.60
2017-08-26T01:27:18.752Z,14.60
2017-08-26T01:29:47.064Z,14.50
2017-08-26T01:32:16.426Z,14.50
2017-08-26T01:34:44.801Z,14.50
2017-08-26T01:37:13.081Z,14.50
2017-08-26T01:39:41.700Z,14.50
2017-08-26T01:42:10.745Z,14.40
2017-08-26T01:44:39.056Z,14.40
2017-08-26T01:47:07.716Z,14.40
2017-08-26T01:49:36.135Z,14.40
2017-08-26T01:52:05.527Z,14.30
2017-08-26T01:54:35.001Z,14.30
2017-08-26T01:57:04.121Z,14.20
2017-08-26T01:59:32.442Z,14.30
2017-08-26T02:02:01.140Z,14.20
2017-08-26T02:04:29.448Z,14.20
2017-08-26T02:06:57.745Z,14.20
2017-08-26T02:09:26.381Z,14.10
2017-08-26T02:11:54.699Z,14.10
2017-08-26T02:14:23.032Z,14.00
2017-08-26T02:16:51.610Z,14.00
2017-08-26T02:19:22.975Z,14.00
2017-08-26T02:21:51.556Z,13.90
2017-08-26T02:24:20.532Z,13.90
2017-08-26T02:26:48.853Z,13.90
2017-08-26T02:29:17.437Z,13.90
2017-08-26T02:31:45.715Z,13.90
2017-08-26T02:34:15.465Z,13.90
2017-08-26T02:36:45.129Z,13.90
2017-08-26T02:39:13.459Z,13.80
2017-08-26T02:41:42.016Z,13.80
2017-08-26T02:44:10.603Z,13.80
2017-08-26T02:46:38.898Z,13.80
2017-08-26T02:49:07.236Z,13.80
2017-08-26T02:51:36.277Z,13.80
2017-08-26T02:54:04.590Z,13.70
2017-08-26T02:56:33.355Z,13.70
2017-08-26T02:59:02.650Z,13.70
2017-08-26T03:01:30.940Z,13.70
2017-08-26T03:03:59.297Z,13.60
2017-08-26T03:06:28.535Z,13.60
2017-08-26T03:08:56.833Z,13.60
2017-08-26T03:11:25.324Z,13.50
2017-08-26T03:13:53.951Z,13.50
2017-08-26T03:16:23.027Z,13.50
2017-08-26T03:18:51.323Z,13.50
2017-08-26T03:21:20.035Z,13.40
2017-08-26T03:23:48.350Z,13.40
2017-08-26T03:26:17.407Z,13.40
2017-08-26T03:28:46.216Z,13.40
2017-08-26T03:31:14.609Z,13.40
2017-08-26T03:33:43.254Z,13.40
2017-08-26T03:36:11.902Z,13.40
2017-08-26T03:38:41.081Z,13.40
2017-08-26T03:41:10.425Z,13.30
2017-08-26T03:43:39.894Z,13.30
2017-08-26T03:46:08.697Z,13.30
2017-08-26T03:48:37.080Z,13.30
2017-08-26T03:51:05.858Z,13.30
2017-08-26T03:53:34.138Z,13.30
2017-08-26T03:56:03.330Z,13.30
2017-08-26T03:58:32.579Z,13.30
2017-08-26T04:01:00.881Z,13.30
2017-08-26T04:03:29.185Z,13.30
2017-08-26T04:05:57.776Z,13.20
2017-08-26T04:08:26.099Z,13.20
2017-08-26T04:10:54.373Z,13.20
2017-08-26T04:13:23.053Z,13.20
2017-08-26T04:15:51.441Z,13.30
2017-08-26T04:18:19.720Z,13.30
2017-08-26T04:20:50.059Z,13.30
2017-08-26T04:23:18.509Z,13.30
2017-08-26T04:25:47.122Z,13.30
2017-08-26T04:28:15.711Z,13.30
2017-08-26T04:30:44.039Z,13.30
2017-08-26T04:33:12.334Z,13.40
2017-08-26T04:35:40.951Z,13.40
2017-08-26T04:38:09.243Z,13.40
2017-08-26T04:40:37.570Z,13.40
2017-08-26T04:43:06.194Z,13.50
2017-08-26T04:45:34.500Z,13.50
2017-08-26T04:48:03.355Z,13.60
2017-08-26T04:50:32.996Z,13.70
2017-08-26T04:53:01.288Z,13.80
2017-08-26T04:55:29.617Z,13.90
2017-08-26T04:57:58.968Z,14.10
2017-08-26T05:00:27.310Z,14.10
2017-08-26T05:02:55.597Z,14.20
2017-08-26T05:05:24.202Z,14.30
2017-08-26T05:07:52.592Z,14.50
2017-08-26T05:10:21.508Z,14.60
2017-08-26T05:12:50.079Z,14.60
2017-08-26T05:15:18.477Z,14.80
2017-08-26T05:17:46.760Z,14.80
2017-08-26T05:20:16.174Z,15.00
2017-08-26T05:22:44.555Z,15.10
2017-08-26T05:25:12.831Z,15.20
2017-08-26T05:27:41.431Z,15.30
2017-08-26T05:30:09.746Z,15.40
2017-08-26T05:32:38.060Z,15.50
2017-08-26T05:35:06.677Z,15.60
2017-08-26T05:37:35.565Z,15.70
2017-08-26T05:40:04.559Z,15.70
2017-08-26T05:42:33.169Z,15.80
2017-08-26T05:45:01.461Z,15.90
2017-08-26T05:47:29.741Z,16.00
2017-08-26T05:49:58.705Z,16.10
2017-08-26T05:52:27.016Z,16.20
2017-08-26T05:54:56.214Z,16.30
2017-08-26T05:57:24.872Z,16.40
2017-08-26T05:59:53.168Z,16.60
2017-08-26T06:09:09.443Z,16.70
2017-08-26T06:11:37.748Z,16.80
2017-08-26T06:14:06.840Z,16.90
2017-08-26T06:16:36.169Z,17.00
2017-08-26T06:19:04.455Z,17.20
2017-08-26T06:21:32.756Z,17.40
2017-08-26T06:24:01.403Z,17.60
2017-08-26T06:26:30.015Z,17.70
2017-08-26T06:28:59.203Z,17.90
2017-08-26T06:31:27.786Z,18.10
2017-08-26T06:33:56.092Z,18.20
2017-08-26T06:36:25.044Z,18.40
2017-08-26T06:38:54.343Z,18.50
2017-08-26T06:41:22.641Z,18.60
2017-08-26T06:43:51.316Z,18.70
2017-08-26T06:46:19.943Z,18.90
2017-08-26T06:48:48.890Z,19.10
2017-08-26T06:51:17.177Z,19.30
2017-08-26T06:53:45.750Z,19.50
2017-08-26T06:56:14.025Z,19.50
2017-08-26T06:58:44.137Z,19.60
2017-08-26T07:01:12.776Z,19.70
2017-08-26T07:03:41.047Z,19.80
2017-08-26T07:06:09.344Z,20.00
2017-08-26T07:11:08.911Z,20.70
2017-08-26T07:13:37.212Z,20.70
2017-08-26T07:16:05.854Z,21.00
2017-08-26T07:18:34.148Z,21.30
2017-08-26T07:21:02.695Z,21.60
2017-08-26T07:23:31.291Z,22.00
2017-08-26T07:25:59.597Z,22.20
2017-08-26T07:28:28.614Z,22.50
2017-08-26T07:30:57.896Z,22.60
2017-08-26T07:33:26.164Z,22.50
2017-08-26T07:35:55.002Z,22.70
2017-08-26T07:38:23.605Z,22.80
2017-08-26T07:40:51.891Z,22.80
2017-08-26T07:43:20.206Z,22.90
2017-08-26T07:45:49.618Z,23.20
2017-08-26T07:48:17.924Z,23.30
2017-08-26T07:50:46.934Z,23.50
2017-08-26T07:53:15.593Z,23.60
2017-08-26T07:55:43.957Z,23.70
2017-08-26T07:58:12.249Z,23.80
2017-08-26T08:00:40.799Z,23.80
2017-08-26T08:03:09.136Z,23.80
2017-08-26T08:05:37.430Z,23.90
2017-08-26T08:08:06.049Z,24.00
2017-08-26T08:10:35.332Z,24.20
2017-08-26T08:13:03.604Z,24.20
2017-08-26T08:15:32.530Z,24.30
2017-08-26T08:18:00.820Z,24.40
2017-08-26T08:20:29.105Z,24.40
2017-08-26T08:22:58.520Z,24.50
2017-08-26T08:25:26.860Z,24.40
2017-08-26T08:27:55.173Z,24.40
2017-08-26T08:30:23.813Z,24.30
2017-08-26T08:32:52.109Z,24.30
2017-08-26T08:35:20.378Z,24.20
2017-08-26T08:37:49.018Z,23.80
2017-08-26T08:40:19.045Z,23.50
2017-08-26T08:42:47.350Z,23.20
2017-08-26T08:45:15.968Z,23.00
2017-08-26T08:47:45.157Z,22.90
2017-08-26T08:50:13.448Z,23.00
2017-08-26T08:52:42.227Z,23.30
2017-08-26T08:55:11.695Z,24.30
2017-08-26T08:57:40.718Z,24.30
2017-08-26T09:00:09.302Z,24.80
2017-08-26T09:02:37.646Z,25.20
2017-08-26T09:05:05.937Z,25.40
2017-08-26T09:07:34.569Z,25.60
2017-08-26T09:10:03.949Z,25.70
2017-08-26T09:12:32.257Z,26.10
2017-08-26T09:15:00.818Z,26.40
2017-08-26T09:17:29.110Z,26.60
2017-08-26T09:19:57.379Z,26.80
2017-08-26T09:22:26.004Z,26.90
2017-08-26T09:24:55.319Z,26.80
2017-08-26T09:27:23.647Z,26.70
2017-08-26T09:29:52.293Z,26.80
2017-08-26T09:32:21.210Z,27.00
2017-08-26T09:34:49.540Z,27.30
2017-08-26T09:37:18.203Z,27.70
2017-08-26T09:39:47.028Z,27.80
2017-08-26T09:42:15.313Z,27.90
2017-08-26T09:44:44.015Z,28.10
2017-08-26T09:47:12.564Z,28.00
2017-08-26T09:49:40.888Z,28.00
2017-08-26T09:52:10.396Z,28.00
2017-08-26T09:54:38.704Z,28.00
2017-08-26T09:57:07.294Z,27.80
2017-08-26T09:59:35.879Z,27.50
2017-08-26T10:02:04.198Z,27.50
2017-08-26T10:04:33.167Z,27.50
2017-08-26T10:07:01.810Z,27.40
2017-08-26T10:09:30.151Z,27.20
2017-08-26T10:11:58.452Z,27.10
2017-08-26T10:14:27.771Z,27.10
2017-08-26T10:16:56.058Z,27.00
2017-08-26T10:19:24.346Z,27.00
2017-08-26T10:21:52.922Z,27.10
2017-08-26T10:24:21.253Z,27.10
2017-08-26T10:26:50.382Z,26.70
2017-08-26T10:29:19.573Z,26.70
2017-08-26T10:31:48.620Z,26.90
2017-08-26T10:34:17.156Z,26.80
2017-08-26T10:36:45.735Z,26.90
2017-08-26T10:39:14.175Z,27.10
2017-08-26T10:41:42.468Z,27.40
2017-08-26T10:44:13.877Z,27.50
2017-08-26T10:46:42.221Z,27.90
2017-08-26T10:49:10.531Z,28.30
2017-08-26T10:51:39.885Z,28.70
2017-08-26T10:54:08.300Z,28.90
2017-08-26T10:56:36.579Z,29.00
2017-08-26T10:59:05.965Z,29.20
2017-08-26T11:01:34.336Z,29.20
2017-08-26T11:04:02.630Z,29.50
2017-08-26T11:06:31.221Z,29.80
2017-08-26T11:09:00.652Z,31.20
2017-08-26T11:11:28.938Z,31.10
2017-08-26T11:13:57.299Z,31.90
2017-08-26T11:18:55.539Z,33.10
2017-08-26T11:21:23.824Z,34.00
2017-08-26T11:23:52.112Z,34.10
2017-08-26T11:26:20.731Z,34.20
2017-08-26T11:28:50.085Z,33.90
2017-08-26T11:31:18.378Z,32.90
2017-08-26T11:33:46.976Z,32.00
2017-08-26T11:36:16.148Z,31.80
2017-08-26T11:38:44.450Z,31.60
2017-08-26T11:41:12.762Z,31.30
2017-08-26T11:43:41.868Z,31.20
2017-08-26T11:46:11.074Z,31.30
2017-08-26T11:48:39.645Z,31.50
2017-08-26T11:51:08.020Z,31.70
2017-08-26T11:56:06.108Z,33.80
2017-08-26T12:01:04.185Z,36.70
2017-08-26T12:03:32.490Z,37.50
2017-08-26T12:06:00.803Z,37.70
2017-08-26T12:08:29.407Z,37.40
2017-08-26T12:10:57.670Z,37.80
2017-08-26T12:13:26.399Z,38.00
2017-08-26T12:15:54.881Z,38.30
2017-08-26T12:18:23.219Z,38.80
2017-08-26T12:20:51.811Z,38.30
2017-08-26T12:23:20.545Z,37.80
2017-08-26T12:25:48.838Z,37.50
2017-08-26T12:28:17.425Z,36.90
2017-08-26T12:30:45.715Z,36.50
2017-08-26T12:33:14.000Z,36.30
2017-08-26T12:35:42.637Z,35.90
2017-08-26T12:38:11.116Z,35.50
2017-08-26T12:40:39.434Z,35.10
2017-08-26T12:43:08.125Z,34.40
2017-08-26T12:45:37.372Z,33.90
2017-08-26T12:48:05.650Z,34.00
2017-08-26T12:50:34.000Z,34.70
2017-08-26T12:53:03.284Z,35.00
2017-08-26T12:55:31.863Z,35.30
2017-08-26T12:58:00.265Z,36.00
2017-08-26T13:00:29.883Z,36.60
2017-08-26T13:02:58.592Z,36.70
2017-08-26T13:05:27.204Z,36.40
2017-08-26T13:07:55.466Z,36.40
2017-08-26T13:10:25.150Z,36.40
2017-08-26T13:12:53.510Z,36.40
2017-08-26T13:15:21.905Z,36.60
2017-08-26T13:17:51.509Z,36.70
2017-08-26T13:20:19.829Z,37.60
2017-08-26T13:22:48.825Z,38.40
2017-08-26T13:25:18.149Z,38.70
2017-08-26T13:27:47.224Z,38.10
2017-08-26T13:30:16.245Z,38.10
2017-08-26T13:32:44.876Z,37.20
2017-08-26T13:35:14.836Z,34.40
2017-08-26T13:37:43.108Z,34.30
2017-08-26T13:40:11.674Z,33.30
2017-08-26T13:42:39.992Z,32.90
2017-08-26T13:45:08.341Z,32.30
2017-08-26T13:47:36.978Z,32.00
2017-08-26T13:50:05.287Z,31.50
2017-08-26T13:52:34.561Z,30.60
2017-08-26T13:55:02.918Z,29.60
2017-08-26T13:57:31.586Z,29.40
2017-08-26T14:00:00.257Z,29.40
2017-08-26T14:02:28.971Z,29.20
2017-08-26T14:04:58.401Z,29.10
2017-08-26T14:07:27.056Z,29.20
2017-08-26T14:09:55.391Z,29.40
2017-08-26T14:12:24.231Z,29.70
2017-08-26T14:14:53.660Z,29.70
2017-08-26T14:17:22.852Z,29.70
2017-08-26T14:19:51.187Z,29.60
2017-08-26T14:22:19.815Z,29.30
2017-08-26T14:24:48.826Z,28.90
2017-08-26T14:27:17.132Z,29.00
2017-08-26T14:29:45.838Z,29.50
2017-08-26T14:32:14.126Z,30.10
2017-08-26T14:34:42.416Z,30.40
2017-08-26T14:37:11.464Z,30.80
2017-08-26T14:39:40.673Z,31.40
2017-08-26T14:42:08.946Z,32.30
2017-08-26T14:44:37.647Z,32.90
2017-08-26T14:47:07.801Z,32.70
2017-08-26T14:49:36.071Z,32.40
2017-08-26T14:52:04.650Z,32.00
2017-08-26T14:54:32.932Z,32.50
2017-08-26T14:57:01.223Z,33.10
2017-08-26T14:59:29.888Z,33.90
2017-08-26T15:01:58.855Z,34.60
2017-08-26T15:04:27.309Z,35.20
2017-08-26T15:06:56.374Z,35.50
2017-08-26T15:09:25.092Z,35.10
2017-08-26T15:11:53.626Z,34.50
2017-08-26T15:14:22.043Z,34.10
2017-08-26T15:16:50.438Z,33.90
2017-08-26T15:19:19.164Z,33.50
2017-08-26T15:21:47.473Z,33.00
2017-08-26T15:24:15.793Z,32.60
2017-08-26T15:26:44.451Z,32.20
2017-08-26T15:29:12.755Z,31.80
2017-08-26T15:31:41.508Z,31.20
2017-08-26T15:41:39.467Z,29.70
2017-08-26T15:44:07.780Z,29.70
2017-08-26T15:46:36.474Z,29.40
2017-08-26T15:49:04.760Z,29.20
2017-08-26T15:56:32.247Z,28.30
2017-08-26T15:59:01.781Z,27.80
2017-08-26T16:01:30.450Z,27.80
2017-08-26T16:03:58.776Z,27.50
2017-08-26T16:06:27.078Z,27.10
2017-08-26T16:08:55.451Z,26.90
2017-08-26T16:11:23.773Z,26.70
2017-08-26T16:13:52.475Z,26.60
2017-08-26T16:16:20.745Z,26.40
2017-08-26T16:18:49.129Z,26.10
2017-08-26T16:21:18.280Z,26.10
2017-08-26T16:23:46.605Z,26.00
2017-08-26T16:26:15.295Z,26.00
2017-08-26T16:28:44.460Z,26.00
2017-08-26T16:31:13.974Z,26.00
2017-08-26T16:33:43.185Z,26.10
2017-08-26T16:36:11.486Z,26.20
2017-08-26T16:38:40.715Z,26.20
2017-08-26T16:41:09.425Z,26.20
2017-08-26T16:43:37.766Z,26.00
2017-08-26T16:46:06.062Z,25.90
2017-08-26T16:48:34.767Z,25.90
2017-08-26T16:51:03.316Z,25.80
2017-08-26T16:53:31.625Z,25.70
2017-08-26T16:55:59.993Z,25.70
2017-08-26T16:58:28.297Z,25.60
2017-08-26T17:00:57.937Z,25.50
2017-08-26T17:03:26.229Z,25.50
2017-08-26T17:05:54.527Z,25.40
2017-08-26T17:08:23.132Z,25.40
2017-08-26T17:10:51.819Z,25.30
2017-08-26T17:13:20.190Z,25.20
2017-08-26T17:15:48.814Z,25.20
2017-08-26T17:18:17.103Z,25.10
2017-08-26T17:20:45.730Z,25.00
2017-08-26T17:23:14.064Z,24.90
2017-08-26T17:25:43.085Z,24.80
2017-08-26T17:28:13.058Z,24.70
2017-08-26T17:30:41.448Z,24.60
2017-08-26T17:33:09.771Z,24.60
2017-08-26T17:35:38.430Z,24.50
2017-08-26T17:38:07.063Z,24.40
2017-08-26T17:40:35.389Z,24.30
2017-08-26T17:43:04.284Z,24.30
2017-08-26T17:45:32.586Z,24.20
2017-08-26T17:48:00.871Z,24.20
2017-08-26T17:50:31.159Z,24.10
2017-08-26T17:52:59.448Z,24.00
2017-08-26T17:55:27.787Z,24.00
2017-08-26T17:57:56.149Z,23.90
2017-08-26T18:00:24.799Z,23.90
2017-08-26T18:02:53.417Z,23.80
2017-08-26T18:05:22.514Z,23.80
2017-08-26T18:07:51.512Z,23.70
2017-08-26T18:10:20.155Z,23.60
2017-08-26T18:12:48.485Z,23.50
2017-08-26T18:15:18.159Z,23.40
2017-08-26T18:17:46.500Z,23.20
2017-08-26T18:20:14.787Z,23.20
2017-08-26T18:22:43.115Z,23.10
2017-08-26T18:25:11.450Z,23.00
2017-08-26T18:27:40.066Z,23.00
2017-08-26T18:30:08.374Z,22.90
2017-08-26T18:32:36.671Z,22.80
2017-08-26T18:35:05.068Z,22.80
2017-08-26T18:37:33.380Z,22.70
2017-08-26T18:40:02.014Z,22.70
2017-08-26T18:42:31.135Z,22.70
2017-08-26T18:44:59.450Z,22.60
2017-08-26T18:47:28.194Z,22.60
2017-08-26T18:49:56.516Z,22.60
2017-08-26T18:52:24.865Z,22.50
2017-08-26T18:54:53.262Z,22.50
2017-08-26T18:57:22.559Z,22.50
2017-08-26T18:59:51.163Z,22.40
2017-08-26T19:02:19.497Z,22.40
2017-08-26T19:04:47.816Z,22.30
2017-08-26T19:07:16.170Z,22.20
2017-08-26T19:09:44.540Z,22.20
2017-08-26T19:12:13.203Z,22.10
2017-08-26T19:14:42.242Z,22.10
2017-08-26T19:17:10.524Z,22.10
2017-08-26T19:19:38.851Z,22.00
2017-08-26T19:22:07.191Z,22.10
2017-08-26T19:24:35.779Z,22.10
2017-08-26T19:27:04.101Z,22.10
2017-08-26T19:29:32.475Z,22.10
2017-08-26T19:32:01.610Z,22.10
2017-08-26T19:34:31.017Z,22.10
2017-08-26T19:36:59.995Z,22.10
2017-08-26T19:39:29.019Z,22.10
2017-08-26T19:41:57.880Z,22.10
2017-08-26T19:44:26.239Z,22.10
2017-08-26T19:46:54.549Z,22.10
2017-08-26T19:49:23.331Z,22.10
2017-08-26T19:51:52.339Z,22.10
2017-08-26T19:54:20.728Z,22.10
2017-08-26T19:56:50.953Z,22.10
2017-08-26T19:59:19.274Z,22.10
2017-08-26T20:01:48.085Z,22.10
2017-08-26T20:04:16.433Z,22.10
2017-08-26T20:06:44.746Z,22.10
2017-08-26T20:09:13.359Z,22.10
2017-08-26T20:11:42.239Z,22.10
2017-08-26T20:14:10.534Z,22.10
2017-08-26T20:16:39.097Z,22.10
2017-08-26T20:19:07.436Z,22.10
2017-08-26T20:21:35.763Z,22.10
2017-08-26T20:24:04.087Z,22.10
2017-08-26T20:26:32.457Z,22.10
2017-08-26T20:29:01.877Z,22.10
2017-08-26T20:31:30.199Z,22.10
2017-08-26T20:33:58.525Z,22.10
2017-08-26T20:36:27.142Z,22.10
2017-08-26T20:38:55.489Z,22.10
2017-08-26T20:41:23.810Z,22.10
2017-08-26T20:43:52.481Z,22.10
2017-08-26T20:46:20.797Z,22.10
2017-08-26T20:48:49.086Z,22.00
2017-08-26T20:51:17.822Z,22.00
2017-08-26T20:53:46.137Z,22.00
2017-08-26T20:56:14.814Z,22.00
2017-08-26T20:58:43.417Z,22.00
2017-08-26T21:01:13.519Z,21.90
2017-08-26T21:03:41.861Z,21.90
2017-08-26T21:06:10.166Z,21.90
2017-08-26T21:08:39.590Z,21.90
2017-08-26T21:11:08.206Z,21.80
2017-08-26T21:13:36.633Z,21.80
2017-08-26T21:16:05.248Z,21.80
2017-08-26T21:18:33.576Z,21.80
2017-08-26T21:21:01.872Z,21.80
2017-08-26T21:23:31.140Z,21.90
2017-08-26T21:25:59.898Z,21.90
2017-08-26T21:28:28.254Z,21.90
2017-08-26T21:30:56.858Z,21.80
2017-08-26T21:33:25.249Z,21.90
2017-08-26T21:35:53.670Z,21.80
2017-08-26T21:38:22.007Z,21.90
2017-08-26T21:40:50.347Z,21.90
2017-08-26T21:43:20.020Z,21.90
2017-08-26T21:45:49.246Z,21.90
2017-08-26T21:48:17.641Z,21.90
2017-08-26T21:50:46.630Z,21.90
2017-08-26T21:53:14.960Z,21.90
2017-08-26T21:55:43.292Z,21.90
2017-08-26T21:58:11.641Z,21.80
2017-08-26T22:00:40.005Z,21.80
2017-08-26T22:03:09.355Z,21.80
2017-08-26T22:05:37.670Z,21.80
2017-08-26T22:08:05.996Z,21.70
2017-08-26T22:10:34.307Z,21.70
2017-08-26T22:13:02.615Z,21.60
2017-08-26T22:15:31.294Z,21.60
2017-08-26T22:17:59.584Z,21.60
2017-08-26T22:20:27.880Z,21.60
2017-08-26T22:22:56.217Z,21.60
2017-08-26T22:25:24.540Z,21.70
2017-08-26T22:27:53.116Z,21.70
2017-08-26T22:30:22.043Z,21.70
2017-08-26T22:32:50.340Z,21.80
2017-08-26T22:35:19.080Z,21.80
2017-08-26T22:37:47.384Z,21.80
2017-08-26T22:40:16.289Z,21.80
2017-08-26T22:42:44.925Z,21.80
2017-08-26T22:45:13.874Z,21.70
2017-08-26T22:47:42.597Z,21.70
2017-08-26T22:50:10.922Z,21.60
2017-08-26T22:52:40.044Z,21.60
2017-08-26T22:55:08.679Z,21.50
2017-08-26T22:57:37.038Z,21.50
2017-08-26T23:00:05.356Z,21.40
2017-08-26T23:02:34.662Z,21.30
2017-08-26T23:05:04.376Z,21.30
2017-08-26T23:07:33.045Z,21.30
2017-08-26T23:10:01.376Z,21.30
2017-08-26T23:12:30.016Z,21.30
2017-08-26T23:14:58.599Z,21.30
2017-08-26T23:17:27.702Z,21.30
2017-08-26T23:19:57.929Z,21.20
2017-08-26T23:22:27.633Z,21.20
2017-08-26T23:24:55.976Z,21.10
2017-08-26T23:27:24.599Z,21.10
2017-08-26T23:29:53.012Z,21.10
2017-08-26T23:32:21.348Z,21.10
2017-08-26T23:34:49.957Z,21.00
2017-08-26T23:37:18.937Z,21.00
2017-08-26T23:39:47.252Z,21.00
2017-08-26T23:42:16.003Z,21.00
2017-08-26T23:44:44.336Z,20.90
2017-08-26T23:47:12.625Z,20.80
2017-08-26T23:49:40.991Z,20.70
2017-08-26T23:52:09.793Z,20.70
2017-08-26T23:54:38.599Z,20.60
2017-08-26T23:57:07.478Z,20.60
2017-08-26T23:59:35.786Z,20.60
